KAL541 LOWW-ENGM
Flight info
| Callsign | KAL541 |
|---|---|
| Flight time | N/A |
| Altitude | 34000 |
| Route | LANUX DCT VLM DCT HDO DCT POGAB DCT SONAL DCT GOLMI DCT KULUD DCT SABAK DCT LUNIP |
| Aircraft | B77L/H-SDE1E2E3FGHIJ2J3J4J5M1RWXY/LB1D1 |
Departure
| Time | N/A |
|---|---|
| Airport | Vienna International Airport (LOWW) |
Arrival
| Time | 2026-05-05 18:32 |
|---|---|
| Airport | Oslo-Gardermoen International Airport (ENGM) |
| Time | Latitude | Longitude | Altitude | Speed | Heading |
|---|---|---|---|---|---|
| 2026-05-05 17:55 | 58.12736 | 11.66185 | 33937 ft | 466 kts | 340° |
| 2026-05-05 17:55 | 58.15905 | 11.64984 | 33938 ft | 466 kts | 340° |
| 2026-05-05 17:56 | 58.22275 | 11.62702 | 33241 ft | 475 kts | 342° |
| 2026-05-05 17:56 | 58.25525 | 11.61682 | 32717 ft | 471 kts | 342° |
| 2026-05-05 17:56 | 58.28746 | 11.60708 | 32159 ft | 465 kts | 342° |
| 2026-05-05 17:56 | 58.31921 | 11.59745 | 31628 ft | 460 kts | 342° |
| 2026-05-05 17:57 | 58.35066 | 11.58776 | 31099 ft | 455 kts | 342° |
| 2026-05-05 17:57 | 58.38169 | 11.57801 | 30592 ft | 451 kts | 341° |
| 2026-05-05 17:57 | 58.41258 | 11.56816 | 30069 ft | 447 kts | 341° |
| 2026-05-05 17:57 | 58.44311 | 11.55836 | 29481 ft | 442 kts | 341° |
| 2026-05-05 17:58 | 58.47324 | 11.54866 | 28956 ft | 437 kts | 341° |
| 2026-05-05 17:58 | 58.50314 | 11.53901 | 28410 ft | 432 kts | 341° |
| 2026-05-05 17:58 | 58.53254 | 11.52952 | 27960 ft | 428 kts | 341° |
| 2026-05-05 17:58 | 58.56180 | 11.52003 | 27406 ft | 424 kts | 341° |
| 2026-05-05 17:59 | 58.59077 | 11.51062 | 26882 ft | 420 kts | 341° |
| 2026-05-05 17:59 | 58.61946 | 11.50129 | 26391 ft | 417 kts | 341° |
| 2026-05-05 17:59 | 58.64793 | 11.49203 | 25887 ft | 413 kts | 341° |
| 2026-05-05 17:59 | 58.67618 | 11.48282 | 25420 ft | 410 kts | 341° |
| 2026-05-05 18:00 | 58.70420 | 11.47367 | 24932 ft | 407 kts | 341° |
| 2026-05-05 18:00 | 58.73208 | 11.46457 | 24454 ft | 404 kts | 341° |
| 2026-05-05 18:00 | 58.75976 | 11.45549 | 23992 ft | 402 kts | 341° |
| 2026-05-05 18:00 | 58.78729 | 11.44646 | 23512 ft | 400 kts | 341° |
| 2026-05-05 18:01 | 58.81459 | 11.43747 | 23025 ft | 398 kts | 340° |
| 2026-05-05 18:01 | 58.84176 | 11.42855 | 22521 ft | 395 kts | 340° |
| 2026-05-05 18:01 | 58.86876 | 11.41966 | 22015 ft | 392 kts | 340° |
| 2026-05-05 18:01 | 58.89525 | 11.41093 | 21552 ft | 389 kts | 340° |
| 2026-05-05 18:02 | 58.92177 | 11.40217 | 21091 ft | 386 kts | 340° |
| 2026-05-05 18:02 | 58.94820 | 11.39343 | 20632 ft | 382 kts | 340° |
| 2026-05-05 18:02 | 58.97425 | 11.38480 | 20180 ft | 379 kts | 340° |
| 2026-05-05 18:02 | 59.00020 | 11.37619 | 19739 ft | 376 kts | 340° |
| 2026-05-05 18:03 | 59.02584 | 11.36767 | 19313 ft | 373 kts | 340° |
| 2026-05-05 18:03 | 59.05133 | 11.35918 | 18853 ft | 370 kts | 340° |
| 2026-05-05 18:03 | 59.07657 | 11.35072 | 18413 ft | 368 kts | 339° |
| 2026-05-05 18:03 | 59.10169 | 11.34233 | 17961 ft | 364 kts | 340° |
| 2026-05-05 18:04 | 59.12656 | 11.33400 | 17545 ft | 360 kts | 339° |
| 2026-05-05 18:04 | 59.15118 | 11.32573 | 17059 ft | 357 kts | 340° |
| 2026-05-05 18:04 | 59.17550 | 11.31757 | 16635 ft | 352 kts | 340° |
| 2026-05-05 18:04 | 59.19961 | 11.31041 | 16222 ft | 350 kts | 343° |
| 2026-05-05 18:05 | 59.22379 | 11.30535 | 15818 ft | 347 kts | 345° |
| 2026-05-05 18:05 | 59.24769 | 11.30093 | 15406 ft | 343 kts | 346° |
| 2026-05-05 18:05 | 59.27120 | 11.29652 | 15184 ft | 333 kts | 346° |
| 2026-05-05 18:05 | 59.29385 | 11.29222 | 15105 ft | 320 kts | 345° |
| 2026-05-05 18:06 | 59.31555 | 11.28796 | 15020 ft | 308 kts | 345° |
| 2026-05-05 18:06 | 59.32950 | 11.28514 | 14913 ft | 301 kts | 345° |
| 2026-05-05 18:06 | 59.35682 | 11.27952 | 14644 ft | 290 kts | 345° |
| 2026-05-05 18:06 | 59.37678 | 11.27531 | 14312 ft | 287 kts | 345° |
| 2026-05-05 18:07 | 59.39656 | 11.27115 | 13931 ft | 286 kts | 346° |
| 2026-05-05 18:07 | 59.41629 | 11.26702 | 13567 ft | 284 kts | 347° |
| 2026-05-05 18:07 | 59.43591 | 11.26296 | 13133 ft | 283 kts | 348° |
| 2026-05-05 18:07 | 59.45542 | 11.25889 | 12783 ft | 279 kts | 347° |
| 2026-05-05 18:08 | 59.47446 | 11.25451 | 12516 ft | 272 kts | 347° |
| 2026-05-05 18:08 | 59.49302 | 11.25003 | 12259 ft | 266 kts | 347° |
| 2026-05-05 18:08 | 59.51127 | 11.24554 | 11961 ft | 264 kts | 346° |
| 2026-05-05 18:08 | 59.52947 | 11.24010 | 11630 ft | 264 kts | 346° |
| 2026-05-05 18:09 | 59.54754 | 11.23446 | 11261 ft | 264 kts | 346° |
| 2026-05-05 18:09 | 59.56548 | 11.22879 | 10779 ft | 266 kts | 346° |
| 2026-05-05 18:09 | 59.58389 | 11.22294 | 10276 ft | 270 kts | 347° |
| 2026-05-05 18:09 | 59.60254 | 11.21702 | 9807 ft | 272 kts | 347° |
| 2026-05-05 18:10 | 59.62123 | 11.21112 | 9376 ft | 272 kts | 348° |
| 2026-05-05 18:10 | 59.63984 | 11.20524 | 8985 ft | 269 kts | 348° |
| 2026-05-05 18:10 | 59.65827 | 11.19941 | 8591 ft | 268 kts | 348° |
| 2026-05-05 18:10 | 59.67664 | 11.19359 | 8200 ft | 267 kts | 348° |
| 2026-05-05 18:11 | 59.69490 | 11.18781 | 7811 ft | 265 kts | 348° |
| 2026-05-05 18:11 | 59.71314 | 11.18200 | 7459 ft | 264 kts | 348° |
| 2026-05-05 18:11 | 59.73126 | 11.17622 | 7208 ft | 264 kts | 348° |
| 2026-05-05 18:11 | 59.74932 | 11.17050 | 7090 ft | 262 kts | 348° |
| 2026-05-05 18:12 | 59.76747 | 11.16473 | 7042 ft | 265 kts | 348° |
| 2026-05-05 18:12 | 59.78580 | 11.15886 | 7034 ft | 268 kts | 348° |
| 2026-05-05 18:12 | 59.80420 | 11.15297 | 7028 ft | 268 kts | 348° |
| 2026-05-05 18:12 | 59.82262 | 11.14710 | 7011 ft | 268 kts | 348° |
| 2026-05-05 18:13 | 59.84103 | 11.14121 | 7004 ft | 268 kts | 348° |
| 2026-05-05 18:13 | 59.85948 | 11.13531 | 7009 ft | 263 kts | 348° |
| 2026-05-05 18:13 | 59.87711 | 11.12968 | 6994 ft | 252 kts | 348° |
| 2026-05-05 18:13 | 59.89405 | 11.12427 | 6991 ft | 243 kts | 348° |
| 2026-05-05 18:14 | 59.91063 | 11.11876 | 6997 ft | 239 kts | 344° |
| 2026-05-05 18:14 | 59.92526 | 11.10487 | 6841 ft | 233 kts | 314° |
| 2026-05-05 18:14 | 59.93381 | 11.07825 | 6562 ft | 231 kts | 284° |
| 2026-05-05 18:14 | 59.93411 | 11.04716 | 6290 ft | 228 kts | 260° |
| 2026-05-05 18:15 | 59.93035 | 11.01668 | 6181 ft | 223 kts | 256° |
| 2026-05-05 18:15 | 59.92614 | 10.98748 | 6167 ft | 213 kts | 256° |
| 2026-05-05 18:15 | 59.92507 | 10.95909 | 5697 ft | 208 kts | 285° |
| 2026-05-05 18:15 | 59.93268 | 10.93483 | 5326 ft | 211 kts | 321° |
| 2026-05-05 18:16 | 59.94622 | 10.92431 | 5103 ft | 213 kts | 355° |
| 2026-05-05 18:16 | 59.96037 | 10.93116 | 4800 ft | 214 kts | 29° |
| 2026-05-05 18:16 | 59.97168 | 10.95077 | 4371 ft | 217 kts | 43° |
| 2026-05-05 18:16 | 59.98188 | 10.97253 | 4105 ft | 210 kts | 44° |
| 2026-05-05 18:17 | 59.99126 | 10.99301 | 4012 ft | 197 kts | 40° |
| 2026-05-05 18:17 | 60.00266 | 11.00604 | 4032 ft | 184 kts | 14° |
| 2026-05-05 18:17 | 60.01448 | 11.01430 | 4003 ft | 176 kts | 15° |
| 2026-05-05 18:17 | 60.02600 | 11.02165 | 3889 ft | 177 kts | 12° |
| 2026-05-05 18:18 | 60.03790 | 11.02867 | 3612 ft | 177 kts | 11° |
| 2026-05-05 18:18 | 60.04961 | 11.03542 | 3354 ft | 173 kts | 11° |
| 2026-05-05 18:18 | 60.06121 | 11.04204 | 3135 ft | 173 kts | 12° |
| 2026-05-05 18:18 | 60.07271 | 11.04863 | 2905 ft | 170 kts | 11° |
| 2026-05-05 18:19 | 60.08402 | 11.05510 | 2662 ft | 167 kts | 11° |
| 2026-05-05 18:19 | 60.09506 | 11.06144 | 2422 ft | 164 kts | 11° |
| 2026-05-05 18:19 | 60.10604 | 11.06772 | 2204 ft | 166 kts | 12° |
| 2026-05-05 18:19 | 60.11694 | 11.07400 | 1954 ft | 157 kts | 12° |
| 2026-05-05 18:20 | 60.12705 | 11.07983 | 1776 ft | 149 kts | 11° |
| 2026-05-05 18:20 | 60.13367 | 11.08358 | 1616 ft | 151 kts | 11° |
| 2026-05-05 18:20 | 60.14729 | 11.09143 | 1325 ft | 153 kts | 11° |
| 2026-05-05 18:20 | 60.15761 | 11.09761 | 1207 ft | 154 kts | 13° |
| 2026-05-05 18:21 | 60.16717 | 11.10444 | 1681 ft | 142 kts | 25° |
| 2026-05-05 18:21 | 60.17484 | 11.11951 | 2276 ft | 164 kts | 53° |
| 2026-05-05 18:21 | 60.17825 | 11.14067 | 2912 ft | 162 kts | 89° |
| 2026-05-05 18:21 | 60.17542 | 11.16360 | 3101 ft | 185 kts | 108° |
| 2026-05-05 18:22 | 60.16899 | 11.18562 | 3018 ft | 178 kts | 139° |
| 2026-05-05 18:22 | 60.16293 | 11.19527 | 2880 ft | 160 kts | 155° |
| 2026-05-05 18:22 | 60.14818 | 11.20020 | 2695 ft | 172 kts | 185° |
| 2026-05-05 18:22 | 60.13597 | 11.19907 | 2953 ft | 179 kts | 187° |
| 2026-05-05 18:23 | 60.12338 | 11.19779 | 3040 ft | 188 kts | 185° |
| 2026-05-05 18:23 | 60.10886 | 11.19677 | 3038 ft | 227 kts | 185° |
| 2026-05-05 18:23 | 60.09813 | 11.19595 | 2974 ft | 235 kts | 185° |
| 2026-05-05 18:23 | 60.08184 | 11.19485 | 3001 ft | 235 kts | 185° |
| 2026-05-05 18:24 | 60.06535 | 11.19385 | 3007 ft | 238 kts | 185° |
| 2026-05-05 18:24 | 60.04877 | 11.19278 | 3008 ft | 239 kts | 185° |
| 2026-05-05 18:24 | 60.03222 | 11.19166 | 3007 ft | 236 kts | 185° |
| 2026-05-05 18:24 | 60.01586 | 11.19058 | 2999 ft | 234 kts | 185° |
| 2026-05-05 18:25 | 59.99962 | 11.18948 | 2988 ft | 233 kts | 185° |
| 2026-05-05 18:25 | 59.98871 | 11.18877 | 2999 ft | 232 kts | 185° |
| 2026-05-05 18:25 | 59.96784 | 11.18434 | 2984 ft | 223 kts | 206° |
| 2026-05-05 18:25 | 59.95582 | 11.16588 | 3012 ft | 217 kts | 239° |
| 2026-05-05 18:26 | 59.95138 | 11.13858 | 3002 ft | 203 kts | 274° |
| 2026-05-05 18:26 | 59.95356 | 11.11151 | 3015 ft | 192 kts | 291° |
| 2026-05-05 18:26 | 59.96110 | 11.09079 | 3008 ft | 183 kts | 320° |
| 2026-05-05 18:26 | 59.97162 | 11.07706 | 2995 ft | 181 kts | 336° |
| 2026-05-05 18:27 | 59.98375 | 11.07011 | 3020 ft | 183 kts | 344° |
| 2026-05-05 18:27 | 59.99624 | 11.06449 | 3015 ft | 185 kts | 345° |
| 2026-05-05 18:27 | 60.00884 | 11.05895 | 3013 ft | 186 kts | 345° |
| 2026-05-05 18:27 | 60.02144 | 11.05357 | 2982 ft | 184 kts | 344° |
| 2026-05-05 18:28 | 60.04523 | 11.04389 | 2940 ft | 169 kts | 346° |
| 2026-05-05 18:28 | 60.05669 | 11.04304 | 2878 ft | 166 kts | 8° |
| 2026-05-05 18:28 | 60.06808 | 11.04788 | 2846 ft | 166 kts | 6° |
| 2026-05-05 18:29 | 60.07923 | 11.05259 | 2780 ft | 164 kts | 9° |
| 2026-05-05 18:29 | 60.09015 | 11.05859 | 2576 ft | 161 kts | 12° |
| 2026-05-05 18:29 | 60.10084 | 11.06486 | 2334 ft | 161 kts | 12° |
| 2026-05-05 18:29 | 60.11168 | 11.07118 | 2095 ft | 162 kts | 11° |
| 2026-05-05 18:30 | 60.12240 | 11.07729 | 1876 ft | 156 kts | 12° |
| 2026-05-05 18:30 | 60.13250 | 11.08317 | 1613 ft | 149 kts | 8° |
| 2026-05-05 18:30 | 60.14255 | 11.08852 | 1433 ft | 151 kts | 12° |
| 2026-05-05 18:30 | 60.15274 | 11.09480 | 1232 ft | 156 kts | 13° |
| 2026-05-05 18:31 | 60.16309 | 11.10062 | 990 ft | 152 kts | 14° |
| 2026-05-05 18:31 | 60.17313 | 11.10630 | 779 ft | 148 kts | 14° |
| 2026-05-05 18:31 | 60.18271 | 11.11177 | 684 ft | 137 kts | 14° |
| 2026-05-05 18:31 | 60.19058 | 11.11635 | 683 ft | 95 kts | 16° |
| 2026-05-05 18:32 | 60.19487 | 11.11874 | 683 ft | 36 kts | 13° |
| 2026-05-05 18:32 | 60.19641 | 11.11868 | 680 ft | 15 kts | 343° |
| 2026-05-05 18:32 | 60.19699 | 11.11760 | 683 ft | 9 kts | 293° |
| 2026-05-05 18:32 | 60.19718 | 11.11640 | 684 ft | 9 kts | 287° |
| 2026-05-05 18:33 | 60.19740 | 11.11501 | 682 ft | 11 kts | 291° |
| 2026-05-05 18:33 | 60.19774 | 11.11354 | 681 ft | 13 kts | 295° |
| 2026-05-05 18:33 | 60.19805 | 11.11169 | 687 ft | 15 kts | 285° |
| 2026-05-05 18:33 | 60.19834 | 11.10966 | 683 ft | 15 kts | 286° |
| 2026-05-05 18:34 | 60.19862 | 11.10765 | 686 ft | 15 kts | 286° |
| 2026-05-05 18:34 | 60.19892 | 11.10563 | 684 ft | 15 kts | 287° |
| 2026-05-05 18:34 | 60.19923 | 11.10362 | 684 ft | 15 kts | 286° |
| 2026-05-05 18:34 | 60.19950 | 11.10160 | 688 ft | 15 kts | 285° |
| 2026-05-05 18:35 | 60.19978 | 11.09957 | 686 ft | 15 kts | 285° |
| 2026-05-05 18:35 | 60.20006 | 11.09755 | 684 ft | 15 kts | 286° |
| 2026-05-05 18:35 | 60.20041 | 11.09516 | 680 ft | 22 kts | 286° |
| 2026-05-05 18:35 | 60.20082 | 11.09228 | 680 ft | 21 kts | 286° |
| 2026-05-05 18:36 | 60.20120 | 11.08974 | 680 ft | 11 kts | 286° |
| 2026-05-05 18:36 | 60.20073 | 11.08844 | 680 ft | 17 kts | 197° |
| 2026-05-05 18:36 | 60.19937 | 11.08766 | 678 ft | 21 kts | 196° |
| 2026-05-05 18:36 | 60.19797 | 11.08685 | 679 ft | 21 kts | 196° |
| 2026-05-05 18:37 | 60.19658 | 11.08603 | 677 ft | 21 kts | 196° |
| 2026-05-05 18:37 | 60.19518 | 11.08524 | 678 ft | 21 kts | 195° |
| 2026-05-05 18:37 | 60.19380 | 11.08446 | 679 ft | 21 kts | 196° |
| 2026-05-05 18:37 | 60.19243 | 11.08366 | 679 ft | 21 kts | 196° |
| 2026-05-05 18:38 | 60.19123 | 11.08294 | 676 ft | 16 kts | 197° |
| 2026-05-05 18:38 | 60.19076 | 11.08306 | 677 ft | 7 kts | 130° |
| 2026-05-05 18:38 | 60.19057 | 11.08407 | 677 ft | 8 kts | 106° |
| 2026-05-05 18:38 | 60.19051 | 11.08450 | 677 ft | 0 kts | 105° |